Flying Cat 3 — SX6671 — position and weather

sailwx.info

Track history (hours):
 
Tides and Currents Weather Stations Pressure Air Temp Water Temp Dewpoint Dewpoint Depression Visibility Wind Speed Wind Dir Waves Ship Positions

Flying Cat 3

Last reported at 2014-Aug-30 00:09 UTC. Time now 2014-Aug-30 08:31 UTC.
Position N 37°57' E 023°38'.

Length 48 m; draft 1.5 m.

Type: High speed craft. MMSI: 239552000.

Date/timePositionNaut miles runAvg speedWind from/ knotsBaromVisibWave heightAir tempDewpointWater temp
2014-Aug-30 00:09N 37°57' E 023°38'1524.2
2014-Aug-29 23:33N 37°43' E 023°44'6220.9
2014-Aug-29 20:33N 36°54' E 024°33'10 4.3
2014-Aug-29 18:10N 36°45' E 024°37'1830.3
2014-Aug-29 17:34N 36°37' E 024°58'2914.6
2014-Aug-29 15:32N 36°52' E 024°26'6024.8
2014-Aug-29 13:08N 37°40' E 023°42'1628.8
2014-Aug-29 12:33N 37°57' E 023°38'0 0.1
2014-Aug-29 11:33N 37°57' E 023°38'0 0.0
2014-Aug-29 10:34N 37°57' E 023°38'9 0.7
2014-Aug-28 21:33N 37°48' E 023°41'6731.1
2014-Aug-28 19:24N 36°56' E 024°35'2010.9
2014-Aug-28 17:33N 36°41' E 024°51'20 9.3
2014-Aug-28 15:22N 36°52' E 024°30'6127.9
2014-Aug-28 13:11N 37°40' E 023°43'1727.5
2014-Aug-28 12:34N 37°57' E 023°38'0 0.2
2014-Aug-28 11:33N 37°57' E 023°38'7 0.5
2014-Aug-27 21:33N 37°50' E 023°40'6932.2
2014-Aug-27 19:24N 36°56' E 024°36'1910.1
2014-Aug-27 17:33N 36°41' E 024°50'19 8.5
2014-Aug-27 15:19N 36°51' E 024°30'6128.4
2014-Aug-27 13:09N 37°40' E 023°43'1728.4
2014-Aug-27 12:33N 37°56' E 023°38'0 0.2
2014-Aug-27 11:33N 37°57' E 023°38'10 0.7
2014-Aug-26 21:33N 37°47' E 023°41'6630.8
2014-Aug-26 19:25N 36°56' E 024°35'2111.1
2014-Aug-26 17:34N 36°41' E 024°51'2015.0
2014-Aug-26 16:12N 36°47' E 024°27'5 6.4
2014-Aug-26 15:24N 36°51' E 024°29'6227.2
2014-Aug-26 13:07N 37°41' E 023°42'1628.9
2014-Aug-26 12:34N 37°57' E 023°38'0 0.2
2014-Aug-26 11:34N 37°57' E 023°38'0 0.0
2014-Aug-25 22:05N 37°57' E 023°38'1221.9
2014-Aug-25 21:33N 37°45' E 023°42'6430.4
2014-Aug-25 19:26N 36°56' E 024°35'2010.6
2014-Aug-25 17:33N 36°41' E 024°50'20 9.0
2014-Aug-25 15:21N 36°52' E 024°30'6228.1
2014-Aug-25 13:08N 37°41' E 023°42'1628.0
2014-Aug-25 12:33N 37°57' E 023°38'0 0.1
2014-Aug-25 11:33N 37°57' E 023°38'75 4.7
2014-Aug-24 19:27N 36°57' E 024°35'2010.5
2014-Aug-24 17:33N 36°41' E 024°51'9 9.4
2014-Aug-24 16:33N 36°44' E 024°39'11 8.4
2014-Aug-24 15:16N 36°52' E 024°30'6128.3
2014-Aug-24 13:06N 37°40' E 023°43'1730.8
2014-Aug-24 12:34N 37°56' E 023°38'0 0.4
2014-Aug-24 11:33N 37°57' E 023°38'0 0.0
2014-Aug-23 22:07N 37°57' E 023°38'1322.6
2014-Aug-23 21:33N 37°44' E 023°43'6330.1
2014-Aug-23 19:27N 36°57' E 024°35'68 3.1
2014-Aug-22 21:33N 37°49' E 023°40'6831.9
2014-Aug-22 19:25N 36°56' E 024°35'2010.8
2014-Aug-22 17:33N 36°41' E 024°51'20 9.0
2014-Aug-22 15:19N 36°52' E 024°30'6127.7
2014-Aug-22 13:08N 37°40' E 023°43'1730.4
2014-Aug-22 12:34N 37°56' E 023°38'0 0.4
2014-Aug-22 11:34N 37°57' E 023°38'8 0.6
2014-Aug-21 21:33N 37°48' E 023°40'6832.9
2014-Aug-21 19:29N 36°57' E 024°35'2513.2
2014-Aug-21 17:33N 36°38' E 024°57'2611.2
2014-Aug-21 15:16N 36°52' E 024°30'6028.5
2014-Aug-21 13:10N 37°39' E 023°44'1830.0
2014-Aug-21 12:33N 37°56' E 023°38'0 0.3
2014-Aug-21 11:33N 37°57' E 023°38'9 0.6
2014-Aug-20 21:33N 37°48' E 023°41'6731.5
2014-Aug-20 19:25N 36°56' E 024°35'2010.5
2014-Aug-20 17:33N 36°41' E 024°50'19 8.5
2014-Aug-20 15:19N 36°52' E 024°30'6228.4
2014-Aug-20 13:08N 37°41' E 023°42'1628.2
2014-Aug-20 12:34N 37°57' E 023°38'0 0.2
2014-Aug-20 11:34N 37°57' E 023°38'  
Track history (hours):
 
Tides and Currents Weather Stations Pressure Air Temp Water Temp Dewpoint Dewpoint Depression Visibility Wind Speed Wind Dir Waves Ship Positions

Flying Cat 3

Last reported at 2014-Aug-30 00:09 UTC. Time now 2014-Aug-30 08:31 UTC.
Position N 37°57' E 023°38'.

Length 48 m; draft 1.5 m.

Type: High speed craft. MMSI: 239552000.

Date/timePositionNaut miles runAvg speedWind from/ knotsBaromVisibWave heightAir tempDewpointWater temp
2014-Aug-30 00:09N 37°57' E 023°38'1524.2
2014-Aug-29 23:33N 37°43' E 023°44'6220.9
2014-Aug-29 20:33N 36°54' E 024°33'10 4.3
2014-Aug-29 18:10N 36°45' E 024°37'1830.3
2014-Aug-29 17:34N 36°37' E 024°58'2914.6
2014-Aug-29 15:32N 36°52' E 024°26'6024.8
2014-Aug-29 13:08N 37°40' E 023°42'1628.8
2014-Aug-29 12:33N 37°57' E 023°38'0 0.1
2014-Aug-29 11:33N 37°57' E 023°38'0 0.0
2014-Aug-29 10:34N 37°57' E 023°38'9 0.7
2014-Aug-28 21:33N 37°48' E 023°41'6731.1
2014-Aug-28 19:24N 36°56' E 024°35'2010.9
2014-Aug-28 17:33N 36°41' E 024°51'20 9.3
2014-Aug-28 15:22N 36°52' E 024°30'6127.9
2014-Aug-28 13:11N 37°40' E 023°43'1727.5
2014-Aug-28 12:34N 37°57' E 023°38'0 0.2
2014-Aug-28 11:33N 37°57' E 023°38'7 0.5
2014-Aug-27 21:33N 37°50' E 023°40'6932.2
2014-Aug-27 19:24N 36°56' E 024°36'1910.1
2014-Aug-27 17:33N 36°41' E 024°50'19 8.5
2014-Aug-27 15:19N 36°51' E 024°30'6128.4
2014-Aug-27 13:09N 37°40' E 023°43'1728.4
2014-Aug-27 12:33N 37°56' E 023°38'0 0.2
2014-Aug-27 11:33N 37°57' E 023°38'10 0.7
2014-Aug-26 21:33N 37°47' E 023°41'6630.8
2014-Aug-26 19:25N 36°56' E 024°35'2111.1
2014-Aug-26 17:34N 36°41' E 024°51'2015.0
2014-Aug-26 16:12N 36°47' E 024°27'5 6.4
2014-Aug-26 15:24N 36°51' E 024°29'6227.2
2014-Aug-26 13:07N 37°41' E 023°42'1628.9
2014-Aug-26 12:34N 37°57' E 023°38'0 0.2
2014-Aug-26 11:34N 37°57' E 023°38'0 0.0
2014-Aug-25 22:05N 37°57' E 023°38'1221.9
2014-Aug-25 21:33N 37°45' E 023°42'6430.4
2014-Aug-25 19:26N 36°56' E 024°35'2010.6
2014-Aug-25 17:33N 36°41' E 024°50'20 9.0
2014-Aug-25 15:21N 36°52' E 024°30'6228.1
2014-Aug-25 13:08N 37°41' E 023°42'1628.0
2014-Aug-25 12:33N 37°57' E 023°38'0 0.1
2014-Aug-25 11:33N 37°57' E 023°38'75 4.7
2014-Aug-24 19:27N 36°57' E 024°35'2010.5
2014-Aug-24 17:33N 36°41' E 024°51'9 9.4
2014-Aug-24 16:33N 36°44' E 024°39'11 8.4
2014-Aug-24 15:16N 36°52' E 024°30'6128.3
2014-Aug-24 13:06N 37°40' E 023°43'1730.8
2014-Aug-24 12:34N 37°56' E 023°38'0 0.4
2014-Aug-24 11:33N 37°57' E 023°38'0 0.0
2014-Aug-23 22:07N 37°57' E 023°38'1322.6
2014-Aug-23 21:33N 37°44' E 023°43'6330.1
2014-Aug-23 19:27N 36°57' E 024°35'68 3.1
2014-Aug-22 21:33N 37°49' E 023°40'6831.9
2014-Aug-22 19:25N 36°56' E 024°35'2010.8
2014-Aug-22 17:33N 36°41' E 024°51'20 9.0
2014-Aug-22 15:19N 36°52' E 024°30'6127.7
2014-Aug-22 13:08N 37°40' E 023°43'1730.4
2014-Aug-22 12:34N 37°56' E 023°38'0 0.4
2014-Aug-22 11:34N 37°57' E 023°38'8 0.6
2014-Aug-21 21:33N 37°48' E 023°40'6832.9
2014-Aug-21 19:29N 36°57' E 024°35'2513.2
2014-Aug-21 17:33N 36°38' E 024°57'2611.2
2014-Aug-21 15:16N 36°52' E 024°30'6028.5
2014-Aug-21 13:10N 37°39' E 023°44'1830.0
2014-Aug-21 12:33N 37°56' E 023°38'0 0.3
2014-Aug-21 11:33N 37°57' E 023°38'9 0.6
2014-Aug-20 21:33N 37°48' E 023°41'6731.5
2014-Aug-20 19:25N 36°56' E 024°35'2010.5
2014-Aug-20 17:33N 36°41' E 024°50'19 8.5
2014-Aug-20 15:19N 36°52' E 024°30'6228.4
2014-Aug-20 13:08N 37°41' E 023°42'1628.2
2014-Aug-20 12:34N 37°57' E 023°38'0 0.2
2014-Aug-20 11:34N 37°57' E 023°38'  

Dump ship's entire track history